createdAt,value
2022-08-16T00:01:21.931Z,22.78
2022-08-16T00:03:52.504Z,22.82
2022-08-16T00:06:19.225Z,22.86
2022-08-16T00:08:46.397Z,22.18
2022-08-16T00:11:15.290Z,22.32
2022-08-16T00:13:43.535Z,22.80
2022-08-16T00:17:05.459Z,22.79
2022-08-16T00:19:08.390Z,22.82
2022-08-16T00:21:35.547Z,22.86
2022-08-16T00:24:05.063Z,22.83
2022-08-16T00:26:44.099Z,22.84
2022-08-16T00:29:13.346Z,22.87
2022-08-16T00:31:58.621Z,23.01
2022-08-16T00:34:44.088Z,22.91
2022-08-16T00:37:17.334Z,22.83
2022-08-16T00:39:47.186Z,22.98
2022-08-16T00:42:29.608Z,22.90
2022-08-16T00:45:06.279Z,22.62
2022-08-16T00:47:36.055Z,22.21
2022-08-16T00:50:08.753Z,22.28
2022-08-16T00:52:50.458Z,22.35
2022-08-16T00:55:22.327Z,22.35
2022-08-16T00:57:58.761Z,22.41
2022-08-16T01:00:28.940Z,22.39
2022-08-16T01:02:57.381Z,22.48
2022-08-16T01:05:25.690Z,22.53
2022-08-16T01:07:54.581Z,22.37
2022-08-16T01:10:32.653Z,22.19
2022-08-16T01:13:15.232Z,21.98
2022-08-16T01:15:57.684Z,21.98
2022-08-16T01:18:40.190Z,21.90
2022-08-16T01:21:33.270Z,21.84
2022-08-16T01:24:03.458Z,21.78
2022-08-16T01:26:34.383Z,21.57
2022-08-16T01:29:10.126Z,21.43
2022-08-16T01:31:42.637Z,21.61
2022-08-16T01:34:23.256Z,21.65
2022-08-16T01:37:19.743Z,21.78
2022-08-16T01:39:48.240Z,21.85
2022-08-16T01:42:16.171Z,21.87
2022-08-16T01:44:46.889Z,21.91
2022-08-16T01:47:18.998Z,21.76
2022-08-16T01:50:41.760Z,21.64
2022-08-16T01:52:33.326Z,21.36
2022-08-16T01:55:00.024Z,21.51
2022-08-16T01:57:28.002Z,21.60
2022-08-16T01:59:59.048Z,21.32
2022-08-16T02:02:27.031Z,21.60
2022-08-16T02:04:55.218Z,21.61
2022-08-16T02:07:23.503Z,21.80
2022-08-16T02:09:57.287Z,21.72
2022-08-16T02:12:45.827Z,21.80
2022-08-16T02:15:16.611Z,21.81
2022-08-16T02:17:43.425Z,21.73
2022-08-16T02:20:12.439Z,21.70
2022-08-16T02:22:39.523Z,21.45
2022-08-16T02:25:10.898Z,21.48
2022-08-16T02:27:41.061Z,21.48
2022-08-16T02:30:35.964Z,21.22
2022-08-16T02:33:03.163Z,21.43
2022-08-16T02:35:31.089Z,21.45
2022-08-16T02:38:08.633Z,21.48
2022-08-16T02:40:36.668Z,21.40
2022-08-16T02:43:04.578Z,21.23
2022-08-16T02:45:32.035Z,21.52
2022-08-16T02:48:01.029Z,21.36
2022-08-16T02:50:53.976Z,21.26
2022-08-16T02:53:33.602Z,21.30
2022-08-16T02:56:00.644Z,21.14
2022-08-16T02:58:28.008Z,21.16
2022-08-16T03:00:57.627Z,21.31
2022-08-16T03:03:26.162Z,21.20
2022-08-16T03:05:53.581Z,20.85
2022-08-16T03:08:50.213Z,21.01
2022-08-16T03:11:16.870Z,20.84
2022-08-16T03:13:56.757Z,20.96
2022-08-16T03:16:36.541Z,20.87
2022-08-16T03:19:08.533Z,20.95
2022-08-16T03:21:38.143Z,20.86
2022-08-16T03:24:28.282Z,20.90
2022-08-16T03:26:58.084Z,20.99
2022-08-16T03:29:31.507Z,21.12
2022-08-16T03:32:01.442Z,20.89
2022-08-16T03:34:29.801Z,20.49
2022-08-16T03:36:57.092Z,20.15
2022-08-16T03:39:23.868Z,20.12
2022-08-16T03:41:59.228Z,20.17
2022-08-16T03:44:44.293Z,20.31
2022-08-16T03:47:19.103Z,20.22
2022-08-16T03:49:51.505Z,20.27
2022-08-16T03:52:20.622Z,20.46
2022-08-16T03:54:53.567Z,20.46
2022-08-16T03:57:31.436Z,20.42
2022-08-16T04:00:35.042Z,20.59
2022-08-16T04:03:07.711Z,20.78
2022-08-16T04:05:38.455Z,20.51
2022-08-16T04:08:23.758Z,20.40
2022-08-16T04:10:53.543Z,20.51
2022-08-16T04:14:00.063Z,20.32
2022-08-16T04:16:09.633Z,20.18
2022-08-16T04:19:02.151Z,20.53
2022-08-16T04:21:31.919Z,20.90
2022-08-16T04:23:59.454Z,21.41
2022-08-16T04:26:26.249Z,21.82
2022-08-16T04:29:14.733Z,22.19
2022-08-16T04:31:45.125Z,22.69
2022-08-16T04:34:12.460Z,23.08
2022-08-16T04:36:39.761Z,23.43
2022-08-16T04:39:06.582Z,23.79
2022-08-16T04:41:37.353Z,24.25
2022-08-16T04:44:32.771Z,24.89
2022-08-16T04:47:01.473Z,25.33
2022-08-16T04:49:38.692Z,25.39
2022-08-16T04:52:34.549Z,25.30
2022-08-16T04:54:59.419Z,25.38
2022-08-16T04:57:30.080Z,25.51
2022-08-16T04:59:57.411Z,26.02
2022-08-16T05:02:42.107Z,26.61
2022-08-16T05:05:17.179Z,27.57
2022-08-16T05:07:59.544Z,28.12
2022-08-16T05:10:29.513Z,28.73
2022-08-16T05:12:58.566Z,29.22
2022-08-16T05:15:26.552Z,29.84
2022-08-16T05:17:59.147Z,30.49
2022-08-16T05:20:35.559Z,30.63
2022-08-16T05:23:14.997Z,30.65
2022-08-16T05:25:48.490Z,31.53
2022-08-16T05:28:17.517Z,31.77
2022-08-16T05:30:45.297Z,32.56
2022-08-16T05:33:18.284Z,32.91
2022-08-16T05:35:55.682Z,33.54
2022-08-16T05:38:33.334Z,33.94
2022-08-16T05:41:07.012Z,34.49
2022-08-16T05:43:43.341Z,34.52
2022-08-16T05:46:30.211Z,34.64
2022-08-16T05:49:06.084Z,34.92
2022-08-16T05:51:41.461Z,34.49
2022-08-16T05:54:09.743Z,34.60
2022-08-16T05:56:39.429Z,32.69
2022-08-16T05:59:07.616Z,33.73
2022-08-16T06:01:38.330Z,33.29
2022-08-16T06:04:13.324Z,33.92
2022-08-16T06:06:57.415Z,33.92
2022-08-16T06:09:42.851Z,33.66
2022-08-16T06:12:27.429Z,33.79
2022-08-16T06:14:59.297Z,32.75
2022-08-16T06:17:43.164Z,33.52
2022-08-16T06:20:35.975Z,33.37
2022-08-16T06:23:17.111Z,33.64
2022-08-16T06:25:53.322Z,33.34
2022-08-16T06:28:34.997Z,33.00
2022-08-16T06:31:04.847Z,32.82
2022-08-16T06:33:41.800Z,31.18
2022-08-16T06:36:10.564Z,32.28
2022-08-16T06:38:38.798Z,31.86
2022-08-16T06:41:22.267Z,32.48
2022-08-16T06:43:51.365Z,33.02
2022-08-16T06:46:31.898Z,32.47
2022-08-16T06:48:59.596Z,31.67
2022-08-16T06:51:45.157Z,31.41
2022-08-16T06:54:14.193Z,31.27
2022-08-16T06:56:42.713Z,31.52
2022-08-16T06:59:10.853Z,32.18
2022-08-16T07:01:44.921Z,32.48
2022-08-16T07:04:32.772Z,30.81
2022-08-16T07:07:06.087Z,31.66
2022-08-16T07:09:36.322Z,31.75
2022-08-16T07:12:05.739Z,31.30
2022-08-16T07:14:33.908Z,30.35
2022-08-16T07:17:02.203Z,30.96
2022-08-16T07:20:03.649Z,31.41
2022-08-16T07:22:38.359Z,31.62
2022-08-16T07:25:13.000Z,31.81
2022-08-16T07:27:40.926Z,32.56
2022-08-16T07:30:39.174Z,32.69
2022-08-16T07:32:58.390Z,31.70
2022-08-16T07:35:25.679Z,30.62
2022-08-16T07:37:52.919Z,30.55
2022-08-16T07:40:24.895Z,30.62
2022-08-16T07:43:05.152Z,31.08
2022-08-16T07:45:33.794Z,31.35
2022-08-16T07:48:00.589Z,31.38
2022-08-16T07:50:56.393Z,31.27
2022-08-16T07:53:30.295Z,31.62
2022-08-16T07:55:59.405Z,31.49
2022-08-16T07:58:34.649Z,31.57
2022-08-16T08:01:11.024Z,31.09
2022-08-16T08:03:49.110Z,31.72
2022-08-16T08:06:24.903Z,31.39
2022-08-16T08:08:57.148Z,32.24
2022-08-16T08:11:25.097Z,32.53
2022-08-16T08:14:03.108Z,31.70
2022-08-16T08:16:32.807Z,32.92
2022-08-16T08:19:02.247Z,32.02
2022-08-16T08:21:59.746Z,32.42
2022-08-16T08:24:20.071Z,32.62
2022-08-16T08:26:49.778Z,33.13
2022-08-16T08:29:22.635Z,33.73
2022-08-16T08:31:53.036Z,34.11
2022-08-16T08:34:22.303Z,33.53
2022-08-16T08:36:54.370Z,34.37
2022-08-16T08:39:22.242Z,33.20
2022-08-16T08:41:51.242Z,33.66
2022-08-16T08:44:28.835Z,34.20
2022-08-16T08:47:00.592Z,33.98
2022-08-16T08:49:46.814Z,34.59
2022-08-16T08:52:34.683Z,33.64
2022-08-16T08:55:09.084Z,34.56
2022-08-16T08:57:39.545Z,35.08
2022-08-16T09:00:13.518Z,35.01
2022-08-16T09:02:43.133Z,34.72
2022-08-16T09:05:15.576Z,35.39
2022-08-16T09:08:01.164Z,35.28
2022-08-16T09:10:30.687Z,35.53
2022-08-16T09:12:59.185Z,35.92
2022-08-16T09:15:32.642Z,36.30
2022-08-16T09:18:02.137Z,36.33
2022-08-16T09:20:58.356Z,35.88
2022-08-16T09:23:36.726Z,35.51
2022-08-16T09:26:45.290Z,35.95
2022-08-16T09:29:15.313Z,36.39
2022-08-16T09:31:41.263Z,36.35
2022-08-16T09:34:10.575Z,36.23
2022-08-16T09:36:46.208Z,37.04
2022-08-16T09:39:16.314Z,35.69
2022-08-16T09:41:53.687Z,36.11
2022-08-16T09:45:11.323Z,35.79
2022-08-16T09:47:11.439Z,36.32
2022-08-16T09:49:40.799Z,36.30
2022-08-16T09:52:09.822Z,35.56
2022-08-16T09:54:38.108Z,36.28
2022-08-16T09:57:05.408Z,37.48
2022-08-16T09:59:38.695Z,38.29
2022-08-16T10:02:23.029Z,37.91
2022-08-16T10:04:54.443Z,38.65
2022-08-16T10:07:22.498Z,39.26
2022-08-16T10:09:55.018Z,37.43
2022-08-16T10:12:47.047Z,38.52
2022-08-16T10:15:22.892Z,38.70
2022-08-16T10:18:00.716Z,39.29
2022-08-16T10:20:31.515Z,39.77
2022-08-16T10:23:03.618Z,40.00
2022-08-16T10:27:20.844Z,38.34
2022-08-16T10:28:28.833Z,39.47
2022-08-16T10:30:58.826Z,39.89
2022-08-16T10:33:29.787Z,40.88
2022-08-16T10:36:03.947Z,39.74
2022-08-16T10:38:36.533Z,40.89
2022-08-16T10:41:05.259Z,39.98
2022-08-16T10:43:35.447Z,41.02
2022-08-16T10:46:04.058Z,38.79
2022-08-16T10:48:50.771Z,39.06
2022-08-16T10:51:18.879Z,37.87
2022-08-16T10:53:46.413Z,38.98
2022-08-16T10:56:44.242Z,39.59
2022-08-16T11:12:56.718Z,40.14
2022-08-16T11:15:24.509Z,38.99
2022-08-16T11:20:49.282Z,38.77
2022-08-16T11:23:17.688Z,39.76
2022-08-16T11:26:07.381Z,39.95
2022-08-16T11:31:22.132Z,40.86
2022-08-16T11:33:52.780Z,40.93
2022-08-16T11:36:24.847Z,41.31
2022-08-16T11:38:57.709Z,41.31
2022-08-16T11:41:29.457Z,41.87
2022-08-16T11:43:58.307Z,42.47
2022-08-16T11:46:43.501Z,42.59
2022-08-16T11:49:13.935Z,42.77
2022-08-16T11:51:44.412Z,42.73
2022-08-16T11:54:20.452Z,43.02
2022-08-16T11:56:57.085Z,41.48
2022-08-16T11:59:28.632Z,41.91
2022-08-16T12:02:04.163Z,41.85
2022-08-16T12:04:46.053Z,41.96
2022-08-16T12:07:18.834Z,41.96
2022-08-16T12:09:45.992Z,42.11
2022-08-16T12:12:15.652Z,41.76
2022-08-16T12:14:45.787Z,41.57
2022-08-16T12:17:13.695Z,42.16
2022-08-16T12:19:42.635Z,42.05
2022-08-16T12:22:19.381Z,42.59
2022-08-16T12:24:52.059Z,42.71
2022-08-16T12:27:24.273Z,42.61
2022-08-16T12:29:54.714Z,42.15
2022-08-16T12:32:35.977Z,40.72
2022-08-16T12:35:08.693Z,41.55
2022-08-16T12:37:35.811Z,40.65
2022-08-16T12:40:02.866Z,40.45
2022-08-16T12:42:35.357Z,41.07
2022-08-16T12:45:05.271Z,40.90
2022-08-16T12:47:50.547Z,41.13
2022-08-16T12:50:18.653Z,41.52
2022-08-16T12:52:53.049Z,40.60
2022-08-16T12:55:20.871Z,41.23
2022-08-16T12:57:58.721Z,41.88
2022-08-16T13:00:33.666Z,42.29
2022-08-16T13:03:03.294Z,41.81
2022-08-16T13:08:03.696Z,41.89
2022-08-16T13:10:38.134Z,41.31
2022-08-16T13:13:09.284Z,41.53
2022-08-16T13:15:51.809Z,41.73
2022-08-16T13:18:32.660Z,41.94
2022-08-16T13:21:05.815Z,42.55
2022-08-16T13:23:34.175Z,42.82
2022-08-16T13:26:04.238Z,42.40
2022-08-16T13:28:31.211Z,41.88
2022-08-16T13:30:59.201Z,41.44
2022-08-16T13:33:30.687Z,41.29
2022-08-16T13:36:01.256Z,41.01
2022-08-16T13:38:31.333Z,40.68
2022-08-16T13:41:09.474Z,41.38
2022-08-16T13:43:38.264Z,41.79
2022-08-16T13:46:06.823Z,42.15
2022-08-16T13:48:42.826Z,42.38
2022-08-16T13:51:17.788Z,42.08
2022-08-16T13:53:59.616Z,42.53
2022-08-16T13:56:36.008Z,42.96
2022-08-16T13:59:06.256Z,43.23
2022-08-16T14:01:42.510Z,43.13
2022-08-16T14:04:19.030Z,42.98
2022-08-16T14:06:53.117Z,43.31
2022-08-16T14:09:20.431Z,43.45
2022-08-16T14:11:47.323Z,43.49
2022-08-16T14:14:17.035Z,43.65
2022-08-16T14:16:45.349Z,43.77
2022-08-16T14:19:18.285Z,42.52
2022-08-16T14:21:56.630Z,42.08
2022-08-16T14:24:30.101Z,42.46
2022-08-16T14:26:57.954Z,42.27
2022-08-16T14:29:28.519Z,41.79
2022-08-16T14:31:59.559Z,41.11
2022-08-16T14:34:26.895Z,39.07
2022-08-16T14:36:56.872Z,38.28
2022-08-16T14:39:23.918Z,38.78
2022-08-16T14:41:53.804Z,38.12
2022-08-16T14:44:23.491Z,38.00
2022-08-16T14:46:50.244Z,36.76
2022-08-16T14:49:19.688Z,36.05
2022-08-16T14:51:48.919Z,34.72
2022-08-16T14:54:15.921Z,33.67
2022-08-16T14:56:46.881Z,32.55
2022-08-16T14:59:23.198Z,31.18
2022-08-16T15:01:59.790Z,30.47
2022-08-16T15:04:39.724Z,30.34
2022-08-16T15:07:10.884Z,28.27
2022-08-16T15:09:44.667Z,27.73
2022-08-16T15:12:31.242Z,26.97
2022-08-16T15:15:00.901Z,27.62
2022-08-16T15:17:33.963Z,27.84
2022-08-16T15:20:09.134Z,27.92
2022-08-16T15:22:42.607Z,27.52
2022-08-16T15:25:19.059Z,27.63
2022-08-16T15:27:55.431Z,27.39
2022-08-16T15:30:59.166Z,27.44
2022-08-16T15:33:16.581Z,27.29
2022-08-16T15:35:44.372Z,27.25
2022-08-16T15:38:58.011Z,27.34
2022-08-16T15:40:59.407Z,27.59
2022-08-16T15:43:33.986Z,27.46
2022-08-16T15:46:35.113Z,27.64
2022-08-16T15:49:11.965Z,27.36
2022-08-16T15:51:39.404Z,27.85
2022-08-16T15:54:21.007Z,28.09
2022-08-16T15:56:56.133Z,28.23
2022-08-16T15:59:27.466Z,28.17
2022-08-16T16:02:02.005Z,27.73
2022-08-16T16:04:28.764Z,27.36
2022-08-16T16:06:56.821Z,27.53
2022-08-16T16:09:36.947Z,28.00
2022-08-16T16:12:41.479Z,28.41
2022-08-16T16:14:53.729Z,28.32
2022-08-16T16:17:20.541Z,28.51
2022-08-16T16:19:49.755Z,28.55
2022-08-16T16:22:21.818Z,28.62
2022-08-16T16:24:52.396Z,28.70
2022-08-16T16:27:19.190Z,29.18
2022-08-16T16:29:57.783Z,28.75
2022-08-16T16:32:34.206Z,29.23
2022-08-16T16:35:02.961Z,29.27
2022-08-16T16:37:31.309Z,28.85
2022-08-16T16:39:59.697Z,28.96
2022-08-16T16:42:30.002Z,28.81
2022-08-16T16:45:01.508Z,29.26
2022-08-16T16:47:48.314Z,29.63
2022-08-16T16:50:17.060Z,29.80
2022-08-16T16:52:45.551Z,29.49
2022-08-16T16:55:14.894Z,29.47
2022-08-16T16:58:03.389Z,29.73
2022-08-16T17:00:38.293Z,29.96
2022-08-16T17:03:06.266Z,29.64
2022-08-16T17:05:56.883Z,29.72
2022-08-16T17:08:30.068Z,29.81
2022-08-16T17:10:57.814Z,30.04
2022-08-16T17:13:25.195Z,30.07
2022-08-16T17:15:53.933Z,30.25
2022-08-16T17:19:15.002Z,29.99
2022-08-16T17:21:10.099Z,30.00
2022-08-16T17:23:58.897Z,30.35
2022-08-16T17:26:29.819Z,30.21
2022-08-16T17:29:02.721Z,30.40
2022-08-16T17:31:41.073Z,30.46
2022-08-16T17:34:29.203Z,30.56
2022-08-16T17:36:59.584Z,30.54
2022-08-16T17:39:29.667Z,30.52
2022-08-16T17:41:58.141Z,30.50
2022-08-16T17:44:25.617Z,30.68
2022-08-16T17:46:53.206Z,30.65
2022-08-16T17:49:21.152Z,30.66
2022-08-16T17:51:48.718Z,29.68
2022-08-16T17:54:16.952Z,29.57
2022-08-16T17:57:00.479Z,29.45
2022-08-16T17:59:29.109Z,29.23
2022-08-16T18:01:56.472Z,29.26
2022-08-16T18:04:48.416Z,29.15
2022-08-16T18:07:11.372Z,28.07
2022-08-16T18:09:40.790Z,28.59
2022-08-16T18:12:44.980Z,28.43
2022-08-16T18:15:06.674Z,28.41
2022-08-16T18:17:33.617Z,28.41
2022-08-16T18:20:00.921Z,28.41
2022-08-16T18:22:30.933Z,28.18
2022-08-16T18:24:58.327Z,28.35
2022-08-16T18:27:27.241Z,28.03
2022-08-16T18:29:54.875Z,28.08
2022-08-16T18:32:24.583Z,28.33
2022-08-16T18:34:54.908Z,27.92
2022-08-16T18:37:23.909Z,28.12
2022-08-16T18:39:51.408Z,28.17
2022-08-16T18:42:19.091Z,28.27
2022-08-16T18:44:46.661Z,28.13
2022-08-16T18:47:14.060Z,27.93
2022-08-16T18:49:41.817Z,27.80
2022-08-16T18:52:14.356Z,27.68
2022-08-16T18:55:02.032Z,27.83
2022-08-16T18:57:37.324Z,27.92
2022-08-16T19:00:07.303Z,27.84
2022-08-16T19:02:56.976Z,27.88
2022-08-16T19:05:26.308Z,27.74
2022-08-16T19:07:53.817Z,27.59
2022-08-16T19:10:24.300Z,27.62
2022-08-16T19:12:51.616Z,27.49
2022-08-16T19:15:23.417Z,27.55
2022-08-16T19:17:51.210Z,27.47
2022-08-16T19:20:21.440Z,27.45
2022-08-16T19:23:10.564Z,27.41
2022-08-16T19:25:49.044Z,27.27
2022-08-16T19:28:51.602Z,27.23
2022-08-16T19:31:31.513Z,27.11
2022-08-16T19:33:59.345Z,27.10
2022-08-16T19:36:35.259Z,27.09
2022-08-16T19:39:09.665Z,27.09
2022-08-16T19:41:45.982Z,26.92
2022-08-16T19:44:13.794Z,27.02
2022-08-16T19:46:46.841Z,26.77
2022-08-16T19:49:15.893Z,27.08
2022-08-16T19:51:48.411Z,27.19
2022-08-16T19:54:15.791Z,27.27
2022-08-16T19:56:43.097Z,27.32
2022-08-16T19:59:19.804Z,27.28
2022-08-16T20:01:54.097Z,27.16
2022-08-16T20:04:23.039Z,27.11
2022-08-16T20:06:52.515Z,27.06
2022-08-16T20:09:21.314Z,27.07
2022-08-16T20:11:49.842Z,26.95
2022-08-16T20:14:24.324Z,26.57
2022-08-16T20:16:54.987Z,26.47
2022-08-16T20:19:22.402Z,26.41
2022-08-16T20:21:50.286Z,26.48
2022-08-16T20:24:35.675Z,26.41
2022-08-16T20:27:06.518Z,26.28
2022-08-16T20:29:34.487Z,26.03
2022-08-16T20:32:02.271Z,25.85
2022-08-16T20:34:29.508Z,25.94
2022-08-16T20:36:56.691Z,25.99
2022-08-16T20:39:24.384Z,26.08
2022-08-16T20:41:51.990Z,26.02
2022-08-16T20:44:22.867Z,26.11
2022-08-16T20:46:52.213Z,26.24
2022-08-16T20:49:19.212Z,26.16
2022-08-16T20:51:49.568Z,26.19
2022-08-16T20:54:18.530Z,26.18
2022-08-16T20:56:45.381Z,26.26
2022-08-16T20:59:12.319Z,26.18
2022-08-16T21:01:45.577Z,26.26
2022-08-16T21:04:16.737Z,26.24
2022-08-16T21:06:53.170Z,26.05
2022-08-16T21:09:23.369Z,25.65
2022-08-16T21:11:53.067Z,25.59
2022-08-16T21:14:20.037Z,25.58
2022-08-16T21:16:46.814Z,25.55
2022-08-16T21:19:13.719Z,25.57
2022-08-16T21:21:40.646Z,25.43
2022-08-16T21:24:07.939Z,25.64
2022-08-16T21:26:38.977Z,25.67
2022-08-16T21:29:07.723Z,25.45
2022-08-16T21:31:40.453Z,25.40
2022-08-16T21:34:08.399Z,25.32
2022-08-16T21:36:36.542Z,25.36
2022-08-16T21:39:06.210Z,25.30
2022-08-16T21:41:33.201Z,25.43
2022-08-16T21:43:59.987Z,25.50
2022-08-16T21:46:27.029Z,25.56
2022-08-16T21:48:53.813Z,25.44
2022-08-16T21:51:20.746Z,25.44
2022-08-16T21:53:47.822Z,25.35
2022-08-16T21:56:16.579Z,25.48
2022-08-16T21:58:44.147Z,25.53
2022-08-16T22:01:11.324Z,25.44
2022-08-16T22:03:38.362Z,25.26
2022-08-16T22:06:12.928Z,25.11
2022-08-16T22:08:50.500Z,24.92
2022-08-16T22:11:24.327Z,24.78
2022-08-16T22:13:58.156Z,24.70
2022-08-16T22:16:32.297Z,24.72
2022-08-16T22:19:00.011Z,24.65
2022-08-16T22:21:27.469Z,24.77
2022-08-16T22:23:57.870Z,24.86
2022-08-16T22:26:30.142Z,24.84
2022-08-16T22:29:39.522Z,24.92
2022-08-16T22:32:09.602Z,24.97
2022-08-16T22:34:36.512Z,24.67
2022-08-16T22:37:03.501Z,24.93
2022-08-16T22:39:30.404Z,24.98
2022-08-16T22:41:57.288Z,24.66
2022-08-16T22:44:24.720Z,24.50
2022-08-16T22:46:51.397Z,24.43
2022-08-16T22:49:18.086Z,24.28
2022-08-16T22:51:45.020Z,24.37
2022-08-16T22:54:43.986Z,24.18
2022-08-16T22:56:59.001Z,24.17
2022-08-16T22:59:25.775Z,24.10
2022-08-16T23:01:53.691Z,23.89
2022-08-16T23:04:20.740Z,23.88
2022-08-16T23:06:47.787Z,24.01
2022-08-16T23:09:14.705Z,24.11
2022-08-16T23:11:41.434Z,23.88
2022-08-16T23:14:08.504Z,23.96
2022-08-16T23:16:35.472Z,23.63
2022-08-16T23:19:05.506Z,23.53
2022-08-16T23:21:32.765Z,23.52
2022-08-16T23:23:59.679Z,23.41
2022-08-16T23:26:43.755Z,23.57
2022-08-16T23:29:22.246Z,23.62
2022-08-16T23:31:59.029Z,23.71
2022-08-16T23:34:28.315Z,23.62
2022-08-16T23:36:55.522Z,23.54
2022-08-16T23:39:22.666Z,23.45
2022-08-16T23:41:49.500Z,23.42
2022-08-16T23:44:56.519Z,23.40
2022-08-16T23:47:03.059Z,23.43
2022-08-16T23:49:57.666Z,23.47
2022-08-16T23:52:18.701Z,23.51
2022-08-16T23:55:05.981Z,23.54
2022-08-16T23:57:33.273Z,23.40
